createdAt,value
2019-04-21T00:00:35.536Z,101629.63
2019-04-21T00:03:15.210Z,101643.56
2019-04-21T00:06:07.565Z,101644.53
2019-04-21T00:08:48.466Z,101636.28
2019-04-21T00:11:11.126Z,101635.81
2019-04-21T00:13:33.129Z,101628.14
2019-04-21T00:16:02.387Z,101629.49
2019-04-21T00:18:46.454Z,101632.00
2019-04-21T00:21:25.530Z,101625.38
2019-04-21T00:24:00.368Z,101635.52
2019-04-21T00:26:42.906Z,101628.01
2019-04-21T00:29:19.273Z,101624.91
2019-04-21T00:31:41.935Z,101629.98
2019-04-21T00:34:02.580Z,101625.64
2019-04-21T00:36:47.111Z,101625.05
2019-04-21T00:39:36.478Z,101629.36
2019-04-21T00:42:08.629Z,101627.50
2019-04-21T00:44:29.484Z,101631.81
2019-04-21T00:47:08.458Z,101634.59
2019-04-21T00:49:45.360Z,101629.20
2019-04-21T00:52:43.684Z,101633.23
2019-04-21T00:55:14.033Z,101630.11
2019-04-21T00:57:38.870Z,101630.61
2019-04-21T01:00:16.130Z,101639.10
2019-04-21T01:05:16.688Z,101636.35
2019-04-21T01:07:48.009Z,101637.92
2019-04-21T01:10:15.008Z,101638.77
2019-04-21T01:12:56.102Z,101638.69
2019-04-21T01:15:38.613Z,101646.23
2019-04-21T01:18:06.369Z,101651.36
2019-04-21T01:20:17.928Z,101646.76
2019-04-21T01:22:49.824Z,101640.83
2019-04-21T01:25:30.194Z,101643.11
2019-04-21T01:28:15.135Z,101638.96
2019-04-21T01:30:50.347Z,101633.81
2019-04-21T01:33:26.267Z,101631.97
2019-04-21T01:35:53.713Z,101630.59
2019-04-21T01:38:34.315Z,101629.19
2019-04-21T01:41:08.037Z,101640.46
2019-04-21T01:43:35.778Z,101637.78
2019-04-21T01:46:06.717Z,101636.42
2019-04-21T01:48:34.252Z,101637.71
2019-04-21T01:51:11.526Z,101637.61
2019-04-21T01:53:48.346Z,101635.39
2019-04-21T01:56:31.821Z,101631.02
2019-04-21T01:58:54.016Z,101629.25
2019-04-21T02:01:46.244Z,101633.98
2019-04-21T02:04:13.987Z,101632.19
2019-04-21T02:06:44.446Z,101635.71
2019-04-21T02:09:15.266Z,101630.41
2019-04-21T02:11:56.505Z,101638.67
2019-04-21T02:14:31.106Z,101638.86
2019-04-21T02:16:59.289Z,101635.84
2019-04-21T02:19:28.734Z,101637.98
2019-04-21T02:21:59.573Z,101640.58
2019-04-21T02:27:14.908Z,101641.22
2019-04-21T02:29:48.654Z,101641.22
2019-04-21T02:32:35.705Z,101635.50
2019-04-21T02:42:46.311Z,101643.84
2019-04-21T02:45:20.885Z,101648.30
2019-04-21T02:50:28.280Z,101644.28
2019-04-21T02:55:28.981Z,101650.81
2019-04-21T02:58:06.124Z,101647.78
2019-04-21T03:01:03.269Z,101656.64
2019-04-21T03:03:54.995Z,101659.62
2019-04-21T03:06:56.372Z,101658.62
2019-04-21T03:09:25.953Z,101661.80
2019-04-21T03:11:56.072Z,101658.89
2019-04-21T03:14:40.814Z,101664.31
2019-04-21T03:16:57.706Z,101661.83
2019-04-21T03:22:20.966Z,101662.06
2019-04-21T03:25:00.951Z,101666.76
2019-04-21T03:40:02.549Z,101668.98
2019-04-21T03:42:38.839Z,101675.22
2019-04-21T03:47:38.336Z,101680.70
2019-04-21T03:50:11.088Z,101678.99
2019-04-21T03:55:48.750Z,101684.55
2019-04-21T03:58:14.836Z,101696.79
2019-04-21T04:00:58.278Z,101684.02
2019-04-21T04:06:08.024Z,101685.66
2019-04-21T04:09:03.527Z,101683.88
2019-04-21T04:11:31.575Z,101679.11
2019-04-21T04:14:14.253Z,101679.70
2019-04-21T04:16:26.955Z,101679.62
2019-04-21T04:21:44.254Z,101673.66
2019-04-21T04:26:57.815Z,101670.09
2019-04-21T04:31:43.905Z,101678.10
2019-04-21T04:34:29.149Z,101675.91
2019-04-21T04:44:54.276Z,101681.63
2019-04-21T04:54:55.461Z,101674.80
2019-04-21T05:00:14.307Z,101669.08
2019-04-21T05:07:53.894Z,101669.90
2019-04-21T05:10:18.235Z,101673.02
2019-04-21T05:12:43.837Z,101672.84
2019-04-21T05:15:17.871Z,101670.20
2019-04-21T05:17:50.672Z,101672.79
2019-04-21T05:20:45.977Z,101677.23
2019-04-21T05:22:53.284Z,101680.69
2019-04-21T05:25:23.685Z,101678.81
2019-04-21T05:27:56.371Z,101682.61
2019-04-21T05:30:45.036Z,101684.64
2019-04-21T05:33:20.512Z,101682.87
2019-04-21T05:36:02.055Z,101685.20
2019-04-21T05:38:44.878Z,101691.57
2019-04-21T05:41:13.088Z,101691.67
2019-04-21T05:44:01.927Z,101688.27
2019-04-21T05:46:35.631Z,101687.02
2019-04-21T05:49:10.518Z,101690.13
2019-04-21T05:51:55.716Z,101694.30
2019-04-21T05:57:05.920Z,101693.63
2019-04-21T05:59:43.621Z,101685.76
2019-04-21T06:07:28.855Z,101687.47
2019-04-21T06:10:00.125Z,101692.06
2019-04-21T06:12:38.156Z,101694.19
2019-04-21T06:15:06.995Z,101691.59
2019-04-21T06:17:44.654Z,101693.44
2019-04-21T06:20:15.382Z,101695.49
2019-04-21T06:22:50.612Z,101698.55
2019-04-21T06:25:43.157Z,101698.76
2019-04-21T06:28:04.729Z,101706.12
2019-04-21T06:30:33.269Z,101701.86
2019-04-21T06:33:09.941Z,101700.91
2019-04-21T06:36:12.675Z,101704.80
2019-04-21T06:38:53.856Z,101706.88
2019-04-21T06:41:22.752Z,101707.77
2019-04-21T06:43:56.345Z,101710.58
2019-04-21T06:46:30.947Z,101712.31
2019-04-21T06:49:00.259Z,101712.69
2019-04-21T06:51:32.285Z,101712.53
2019-04-21T06:56:41.279Z,101710.94
2019-04-21T06:59:10.938Z,101717.91
2019-04-21T07:01:52.637Z,101724.23
2019-04-21T07:04:37.758Z,101721.28
2019-04-21T07:06:57.496Z,101716.74
2019-04-21T07:09:47.451Z,101721.44
2019-04-21T07:12:02.281Z,101719.16
2019-04-21T07:14:34.622Z,101722.06
2019-04-21T07:17:11.367Z,101713.98
2019-04-21T07:19:49.975Z,101715.58
2019-04-21T07:22:23.034Z,101719.88
2019-04-21T07:24:51.897Z,101711.34
2019-04-21T07:27:22.304Z,101719.77
2019-04-21T07:29:58.504Z,101715.52
2019-04-21T07:32:49.741Z,101719.16
2019-04-21T07:35:03.643Z,101720.09
2019-04-21T07:37:36.616Z,101727.63
2019-04-21T07:40:07.730Z,101716.55
2019-04-21T07:42:40.078Z,101709.43
2019-04-21T07:45:11.711Z,101712.44
2019-04-21T07:47:53.099Z,101714.36
2019-04-21T07:50:35.043Z,101709.70
2019-04-21T07:53:27.678Z,101707.55
2019-04-21T07:55:39.237Z,101702.13
2019-04-21T07:58:43.787Z,101697.63
2019-04-21T08:01:07.756Z,101706.55
2019-04-21T08:03:38.934Z,101701.14
2019-04-21T08:06:18.739Z,101711.50
2019-04-21T08:08:48.830Z,101701.05
2019-04-21T08:11:14.879Z,101700.79
2019-04-21T08:13:55.089Z,101696.15
2019-04-21T08:18:59.824Z,101703.98
2019-04-21T08:21:35.456Z,101699.12
2019-04-21T08:24:06.191Z,101709.03
2019-04-21T08:29:20.793Z,101697.78
2019-04-21T08:32:14.564Z,101694.87
2019-04-21T08:34:21.492Z,101699.05
2019-04-21T08:36:57.571Z,101698.00
2019-04-21T08:39:39.514Z,101703.95
2019-04-21T08:42:08.476Z,101690.73
2019-04-21T08:44:40.268Z,101678.06
2019-04-21T08:47:15.470Z,101685.73
2019-04-21T08:49:42.829Z,101691.72
2019-04-21T08:52:28.384Z,101687.94
2019-04-21T08:54:55.785Z,101698.21
2019-04-21T08:57:37.695Z,101694.61
2019-04-21T09:00:29.598Z,101697.40
2019-04-21T09:03:02.398Z,101695.48
2019-04-21T09:05:32.578Z,101691.58
2019-04-21T09:08:06.650Z,101682.73
2019-04-21T09:10:44.433Z,101683.57
2019-04-21T09:13:14.841Z,101702.17
2019-04-21T09:15:41.627Z,101687.67
2019-04-21T09:18:13.398Z,101696.10
2019-04-21T09:20:57.634Z,101684.46
2019-04-21T09:23:25.653Z,101687.44
2019-04-21T09:25:57.445Z,101683.91
2019-04-21T09:28:27.257Z,101682.64
2019-04-21T09:30:53.507Z,101676.58
2019-04-21T09:33:28.048Z,101664.59
2019-04-21T09:36:01.202Z,101686.98
2019-04-21T09:38:36.033Z,101668.30
2019-04-21T09:41:06.711Z,101679.38
2019-04-21T09:43:43.870Z,101667.95
2019-04-21T09:46:09.827Z,101664.86
2019-04-21T09:48:49.783Z,101669.42
2019-04-21T09:51:17.741Z,101666.12
2019-04-21T09:53:58.339Z,101666.92
2019-04-21T09:56:31.525Z,101656.05
2019-04-21T09:59:05.555Z,101664.25
2019-04-21T10:01:45.109Z,101663.19
2019-04-21T10:04:05.868Z,101659.05
2019-04-21T10:06:37.811Z,101663.52
2019-04-21T10:09:14.157Z,101667.73
2019-04-21T10:11:43.864Z,101653.48
2019-04-21T10:14:15.615Z,101664.27
2019-04-21T10:16:57.250Z,101662.06
2019-04-21T10:19:29.715Z,101657.09
2019-04-21T10:22:03.966Z,101648.42
2019-04-21T10:24:34.554Z,101653.93
2019-04-21T10:27:07.298Z,101654.76
2019-04-21T10:29:43.207Z,101657.36
2019-04-21T10:32:13.548Z,101655.98
2019-04-21T10:34:45.321Z,101647.70
2019-04-21T10:37:17.121Z,101649.19
2019-04-21T10:39:49.613Z,101652.86
2019-04-21T10:42:21.513Z,101647.30
2019-04-21T10:44:53.188Z,101646.98
2019-04-21T10:47:25.048Z,101644.53
2019-04-21T10:49:56.606Z,101647.85
2019-04-21T10:52:33.985Z,101642.25
2019-04-21T10:55:19.160Z,101640.59
2019-04-21T10:57:39.955Z,101636.08
2019-04-21T11:00:13.937Z,101628.37
2019-04-21T11:02:48.699Z,101631.30
2019-04-21T11:05:20.826Z,101635.68
2019-04-21T11:08:08.115Z,101629.27
2019-04-21T11:10:29.776Z,101626.77
2019-04-21T11:13:05.879Z,101624.94
2019-04-21T11:15:50.785Z,101623.02
2019-04-21T11:18:23.967Z,101618.83
2019-04-21T11:20:55.676Z,101608.97
2019-04-21T11:23:27.476Z,101613.25
2019-04-21T11:26:00.129Z,101619.60
2019-04-21T11:28:31.811Z,101613.19
2019-04-21T11:31:04.753Z,101604.86
2019-04-21T11:33:37.600Z,101602.87
2019-04-21T11:36:13.377Z,101606.27
2019-04-21T11:39:07.383Z,101601.00
2019-04-21T11:41:25.645Z,101592.48
2019-04-21T11:43:59.107Z,101608.63
2019-04-21T11:46:34.240Z,101595.22
2019-04-21T11:49:06.398Z,101590.36
2019-04-21T11:51:38.025Z,101596.52
2019-04-21T11:54:10.835Z,101594.08
2019-04-21T11:56:43.218Z,101592.27
2019-04-21T11:59:15.545Z,101589.29
2019-04-21T12:01:47.666Z,101591.55
2019-04-21T12:04:19.204Z,101584.88
2019-04-21T12:06:52.874Z,101584.47
2019-04-21T12:09:30.705Z,101589.91
2019-04-21T12:12:03.399Z,101579.12
2019-04-21T12:14:36.307Z,101589.89
2019-04-21T12:17:07.967Z,101578.08
2019-04-21T12:19:40.787Z,101578.84
2019-04-21T12:22:20.138Z,101569.59
2019-04-21T12:24:47.036Z,101580.78
2019-04-21T12:27:18.532Z,101572.69
2019-04-21T12:29:51.519Z,101578.55
2019-04-21T12:32:34.023Z,101578.03
2019-04-21T12:35:10.040Z,101573.23
2019-04-21T12:37:42.793Z,101572.46
2019-04-21T12:40:14.835Z,101564.88
2019-04-21T12:42:48.318Z,101559.23
2019-04-21T12:45:22.000Z,101550.92
2019-04-21T12:47:55.531Z,101555.11
2019-04-21T12:50:28.230Z,101552.40
2019-04-21T12:53:00.116Z,101561.05
2019-04-21T12:55:36.629Z,101551.16
2019-04-21T12:58:05.549Z,101556.70
2019-04-21T13:00:38.866Z,101561.84
2019-04-21T13:03:10.375Z,101545.03
2019-04-21T13:05:43.331Z,101554.28
2019-04-21T13:08:15.472Z,101561.44
2019-04-21T13:10:48.446Z,101558.30
2019-04-21T13:13:20.065Z,101557.17
2019-04-21T13:15:53.661Z,101559.09
2019-04-21T13:18:25.318Z,101551.20
2019-04-21T13:20:59.339Z,101559.05
2019-04-21T13:23:32.110Z,101559.72
2019-04-21T13:26:04.352Z,101551.48
2019-04-21T13:28:37.516Z,101553.75
2019-04-21T13:31:10.350Z,101551.63
2019-04-21T13:33:42.415Z,101553.31
2019-04-21T13:36:15.700Z,101546.44
2019-04-21T13:39:32.730Z,101544.25
2019-04-21T13:41:50.469Z,101545.03
2019-04-21T13:44:15.622Z,101546.88
2019-04-21T13:46:49.004Z,101541.34
2019-04-21T13:49:23.367Z,101540.63
2019-04-21T13:51:56.215Z,101546.86
2019-04-21T13:54:27.814Z,101543.64
2019-04-21T13:57:00.671Z,101546.34
2019-04-21T13:59:34.303Z,101543.72
2019-04-21T14:02:06.863Z,101539.58
2019-04-21T14:04:38.434Z,101538.23
2019-04-21T14:07:10.128Z,101540.06
2019-04-21T14:09:50.020Z,101539.30
2019-04-21T14:12:15.024Z,101538.73
2019-04-21T14:14:48.273Z,101535.84
2019-04-21T14:17:21.330Z,101534.80
2019-04-21T14:19:55.002Z,101542.47
2019-04-21T14:22:31.717Z,101549.84
2019-04-21T14:25:10.759Z,101544.89
2019-04-21T14:27:46.998Z,101535.03
2019-04-21T14:30:20.534Z,101542.83
2019-04-21T14:32:54.085Z,101537.70
2019-04-21T14:35:29.534Z,101537.70
2019-04-21T14:38:02.706Z,101547.17
2019-04-21T14:40:36.716Z,101546.19
2019-04-21T14:43:14.163Z,101547.17
2019-04-21T14:45:50.502Z,101547.67
2019-04-21T14:48:43.048Z,101539.29
2019-04-21T14:51:19.070Z,101542.17
2019-04-21T14:53:56.338Z,101547.19
2019-04-21T14:56:29.357Z,101544.29
2019-04-21T14:59:02.628Z,101540.95
2019-04-21T15:01:37.723Z,101540.13
2019-04-21T15:04:09.897Z,101541.11
2019-04-21T15:06:43.313Z,101538.36
2019-04-21T15:09:15.364Z,101537.11
2019-04-21T15:11:47.703Z,101528.70
2019-04-21T15:14:20.123Z,101533.70
2019-04-21T15:16:51.836Z,101537.42
2019-04-21T15:19:24.584Z,101527.17
2019-04-21T15:21:56.709Z,101523.84
2019-04-21T15:24:30.016Z,101531.45
2019-04-21T15:27:02.948Z,101522.43
2019-04-21T15:29:35.018Z,101521.76
2019-04-21T15:32:08.182Z,101521.09
2019-04-21T15:34:42.385Z,101518.94
2019-04-21T15:37:14.054Z,101519.59
2019-04-21T15:39:46.880Z,101520.31
2019-04-21T15:42:18.657Z,101519.99
2019-04-21T15:44:50.614Z,101520.34
2019-04-21T15:47:23.982Z,101524.39
2019-04-21T15:50:02.807Z,101524.50
2019-04-21T15:52:30.050Z,101526.23
2019-04-21T15:55:06.186Z,101520.78
2019-04-21T15:57:47.034Z,101523.45
2019-04-21T16:00:24.722Z,101523.13
2019-04-21T16:02:56.726Z,101529.48
2019-04-21T16:05:28.657Z,101534.73
2019-04-21T16:08:00.363Z,101535.39
2019-04-21T16:10:43.057Z,101531.84
2019-04-21T16:13:05.879Z,101532.63
2019-04-21T16:15:38.657Z,101530.94
2019-04-21T16:18:12.048Z,101534.22
2019-04-21T16:20:43.973Z,101537.12
2019-04-21T16:23:16.183Z,101538.31
2019-04-21T16:25:48.679Z,101543.64
2019-04-21T16:28:21.539Z,101550.28
2019-04-21T16:30:54.338Z,101555.77
2019-04-21T16:33:27.124Z,101549.38
2019-04-21T16:35:59.815Z,101558.89
2019-04-21T16:38:31.546Z,101557.31
2019-04-21T16:41:06.944Z,101559.82
2019-04-21T16:43:38.124Z,101562.83
2019-04-21T16:46:10.793Z,101564.50
2019-04-21T16:48:44.177Z,101562.70
2019-04-21T16:51:16.426Z,101563.88
2019-04-21T16:53:50.449Z,101563.88
2019-04-21T16:56:24.772Z,101561.73
2019-04-21T16:58:58.884Z,101564.25
2019-04-21T17:01:32.297Z,101559.12
2019-04-21T17:04:04.635Z,101567.09
2019-04-21T17:06:38.313Z,101566.26
2019-04-21T17:09:10.673Z,101570.88
2019-04-21T17:11:44.765Z,101570.78
2019-04-21T17:14:33.136Z,101581.00
2019-04-21T17:17:16.038Z,101579.38
2019-04-21T17:19:29.452Z,101581.58
2019-04-21T17:21:57.514Z,101584.34
2019-04-21T17:24:30.534Z,101581.45
2019-04-21T17:27:02.858Z,101592.03
2019-04-21T17:29:35.051Z,101588.30
2019-04-21T17:32:09.350Z,101595.95
2019-04-21T17:34:41.038Z,101593.91
2019-04-21T17:37:13.067Z,101600.08
2019-04-21T17:39:45.074Z,101598.71
2019-04-21T17:42:26.501Z,101603.19
2019-04-21T17:44:51.243Z,101597.17
2019-04-21T17:47:36.381Z,101599.45
2019-04-21T17:50:07.778Z,101601.73
2019-04-21T17:52:48.836Z,101602.09
2019-04-21T17:55:29.831Z,101604.44
2019-04-21T17:58:16.294Z,101601.38
2019-04-21T18:04:01.614Z,101603.18
2019-04-21T18:06:05.351Z,101602.84
2019-04-21T18:08:48.349Z,101602.30
2019-04-21T18:11:05.998Z,101600.64
2019-04-21T18:13:32.741Z,101603.39
2019-04-21T18:16:16.179Z,101602.98
2019-04-21T18:18:39.046Z,101602.60
2019-04-21T18:21:12.512Z,101601.67
2019-04-21T18:24:00.724Z,101607.94
2019-04-21T18:26:39.882Z,101610.28
2019-04-21T18:29:01.107Z,101608.98
2019-04-21T18:31:39.804Z,101610.78
2019-04-21T18:34:27.374Z,101610.69
2019-04-21T18:37:06.534Z,101610.02
2019-04-21T18:39:52.478Z,101612.59
2019-04-21T18:42:42.198Z,101615.82
2019-04-21T18:48:12.483Z,101614.82
2019-04-21T18:50:50.942Z,101614.72
2019-04-21T18:53:50.403Z,101612.52
2019-04-21T18:56:11.222Z,101620.28
2019-04-21T18:58:42.515Z,101619.34
2019-04-21T19:01:20.717Z,101615.75
2019-04-21T19:03:52.202Z,101615.50
2019-04-21T19:06:40.571Z,101616.90
2019-04-21T19:09:11.773Z,101621.36
2019-04-21T19:11:48.035Z,101619.42
2019-04-21T19:14:40.084Z,101618.70
2019-04-21T19:17:11.082Z,101619.42
2019-04-21T19:22:04.881Z,101613.39
2019-04-21T19:24:33.200Z,101618.80
2019-04-21T19:27:12.067Z,101608.33
2019-04-21T19:29:54.006Z,101613.64
2019-04-21T19:32:21.494Z,101612.39
2019-04-21T19:34:36.436Z,101614.50
2019-04-21T19:37:11.572Z,101616.62
2019-04-21T19:39:53.928Z,101616.68
2019-04-21T19:42:22.658Z,101617.30
2019-04-21T19:45:03.306Z,101613.36
2019-04-21T19:47:38.930Z,101618.34
2019-04-21T19:50:10.806Z,101616.67
2019-04-21T19:52:39.909Z,101616.73
2019-04-21T19:55:00.979Z,101617.64
2019-04-21T19:57:34.691Z,101617.07
2019-04-21T20:00:10.118Z,101621.00
2019-04-21T20:02:43.007Z,101623.28
2019-04-21T20:05:24.023Z,101621.91
2019-04-21T20:08:05.471Z,101630.32
2019-04-21T20:10:39.721Z,101636.02
2019-04-21T20:13:14.491Z,101634.23
2019-04-21T20:15:51.082Z,101629.34
2019-04-21T20:18:13.973Z,101636.42
2019-04-21T20:20:35.229Z,101634.23
2019-04-21T20:23:15.012Z,101636.02
2019-04-21T20:25:47.417Z,101637.86
2019-04-21T20:28:29.437Z,101642.28
2019-04-21T20:31:09.690Z,101633.02
2019-04-21T20:36:15.008Z,101638.73
2019-04-21T20:38:35.813Z,101633.89
2019-04-21T20:41:16.125Z,101635.66
2019-04-21T20:43:54.231Z,101635.66
2019-04-21T20:46:24.931Z,101635.67
2019-04-21T20:48:52.326Z,101634.91
2019-04-21T20:51:28.399Z,101634.97
2019-04-21T20:54:03.182Z,101643.36
2019-04-21T20:56:40.949Z,101642.80
2019-04-21T20:59:07.503Z,101640.67
2019-04-21T21:01:43.362Z,101638.98
2019-04-21T21:04:13.793Z,101639.99
2019-04-21T21:06:48.345Z,101642.19
2019-04-21T21:09:18.583Z,101641.77
2019-04-21T21:12:20.368Z,101643.09
2019-04-21T21:14:31.970Z,101651.52
2019-04-21T21:17:13.105Z,101649.34
2019-04-21T21:19:48.723Z,101647.59
2019-04-21T21:22:07.690Z,101647.59
2019-04-21T21:24:49.700Z,101644.45
2019-04-21T21:27:19.592Z,101644.53
2019-04-21T21:29:50.214Z,101641.48
2019-04-21T21:32:25.859Z,101645.44
2019-04-21T21:34:59.645Z,101651.19
2019-04-21T21:37:39.372Z,101649.89
2019-04-21T21:40:12.687Z,101649.89
2019-04-21T21:42:27.883Z,101651.25
2019-04-21T21:45:06.121Z,101641.12
2019-04-21T21:47:49.907Z,101643.80
2019-04-21T21:50:11.069Z,101643.80
2019-04-21T21:52:47.785Z,101646.83
2019-04-21T21:55:11.928Z,101644.66
2019-04-21T21:57:50.386Z,101651.30
2019-04-21T22:00:23.998Z,101650.49
2019-04-21T22:03:03.541Z,101650.49
2019-04-21T22:05:42.099Z,101643.89
2019-04-21T22:08:04.699Z,101647.86
2019-04-21T22:10:36.977Z,101645.63
2019-04-21T22:13:14.105Z,101645.66
2019-04-21T22:15:43.579Z,101649.62
2019-04-21T22:18:34.977Z,101654.45
2019-04-21T22:21:03.629Z,101645.65
2019-04-21T22:23:29.529Z,101651.38
2019-04-21T22:25:57.585Z,101653.62
2019-04-21T22:28:29.697Z,101650.52
2019-04-21T22:31:05.617Z,101654.48
2019-04-21T22:33:41.950Z,101657.16
2019-04-21T22:36:20.992Z,101656.28
2019-04-21T22:38:59.908Z,101656.28
2019-04-21T22:41:26.570Z,101653.66
2019-04-21T22:43:51.653Z,101657.16
2019-04-21T22:46:22.376Z,101658.92
2019-04-21T22:48:59.520Z,101650.58
2019-04-21T22:51:35.800Z,101651.91
2019-04-21T22:54:01.469Z,101649.69
2019-04-21T22:56:34.122Z,101655.43
2019-04-21T22:59:10.863Z,101653.22
2019-04-21T23:01:42.478Z,101651.88
2019-04-21T23:04:15.846Z,101647.95
2019-04-21T23:06:55.812Z,101648.37
2019-04-21T23:09:22.545Z,101650.14
2019-04-21T23:11:57.639Z,101657.61
2019-04-21T23:14:27.979Z,101657.16
2019-04-21T23:17:23.160Z,101661.16
2019-04-21T23:19:46.030Z,101658.52
2019-04-21T23:22:21.477Z,101660.28
2019-04-21T23:25:05.074Z,101660.26
2019-04-21T23:27:26.349Z,101665.09
2019-04-21T23:30:13.224Z,101665.12
2019-04-21T23:32:34.147Z,101669.05
2019-04-21T23:34:55.416Z,101666.41
2019-04-21T23:37:28.974Z,101668.61
2019-04-21T23:40:07.612Z,101671.23
2019-04-21T23:42:37.120Z,101678.27
2019-04-21T23:45:08.732Z,101676.97
2019-04-21T23:47:51.655Z,101668.16
2019-04-21T23:50:29.463Z,101675.64
2019-04-21T23:52:49.749Z,101677.39
2019-04-21T23:55:23.112Z,101673.01
2019-04-21T23:58:02.312Z,101678.27
